createdAt,value
2022-11-13T00:01:13.736Z,27.08
2022-11-13T00:06:16.230Z,30.08
2022-11-13T00:11:19.015Z,31.20
2022-11-13T00:16:21.430Z,30.38
2022-11-13T00:21:23.922Z,29.20
2022-11-13T00:26:31.165Z,31.42
2022-11-13T00:31:32.694Z,30.00
2022-11-13T00:36:34.249Z,28.40
2022-11-13T00:41:38.550Z,29.33
2022-11-13T00:46:40.011Z,30.45
2022-11-13T00:51:44.571Z,29.80
2022-11-13T00:56:48.950Z,29.77
2022-11-13T01:01:50.526Z,30.35
2022-11-13T01:06:52.174Z,27.13
2022-11-13T01:11:53.621Z,31.67
2022-11-13T01:16:54.994Z,30.58
2022-11-13T01:21:56.375Z,34.15
2022-11-13T01:26:57.801Z,32.08
2022-11-13T01:31:59.567Z,30.65
2022-11-13T01:37:01.018Z,32.03
2022-11-13T01:42:02.377Z,29.48
2022-11-13T01:47:03.850Z,30.83
2022-11-13T01:52:08.714Z,29.55
2022-11-13T01:57:10.706Z,29.25
2022-11-13T02:02:12.175Z,31.77
2022-11-13T02:07:15.209Z,28.85
2022-11-13T02:12:21.989Z,27.92
2022-11-13T02:17:46.386Z,27.63
2022-11-13T02:23:10.890Z,26.95
2022-11-13T02:28:12.275Z,27.77
2022-11-13T02:33:27.093Z,25.98
2022-11-13T02:38:28.789Z,28.00
2022-11-13T02:43:30.401Z,28.98
2022-11-13T02:48:31.774Z,30.25
2022-11-13T02:53:33.388Z,31.63
2022-11-13T02:58:34.861Z,30.95
2022-11-13T03:08:57.656Z,27.25
2022-11-13T03:13:59.028Z,28.50
2022-11-13T03:19:00.597Z,25.63
2022-11-13T03:24:02.457Z,27.10
2022-11-13T03:29:04.093Z,30.02
2022-11-13T03:34:05.494Z,29.05
2022-11-13T03:39:06.951Z,30.63
2022-11-13T03:44:08.578Z,31.00
2022-11-13T03:49:09.988Z,32.95
2022-11-13T03:54:11.369Z,30.88
2022-11-13T03:59:12.764Z,28.77
2022-11-13T04:04:14.529Z,29.45
2022-11-13T04:09:15.981Z,28.45
2022-11-13T04:14:17.529Z,29.50
2022-11-13T04:19:18.922Z,27.88
2022-11-13T04:24:20.540Z,26.70
2022-11-13T04:29:21.895Z,29.05
2022-11-13T04:34:23.302Z,28.75
2022-11-13T04:39:24.812Z,28.05
2022-11-13T04:44:26.173Z,27.35
2022-11-13T04:49:27.633Z,27.42
2022-11-13T04:54:29.211Z,29.55
2022-11-13T04:59:30.623Z,28.92
2022-11-13T05:04:32.063Z,29.25
2022-11-13T05:09:33.495Z,28.88
2022-11-13T05:14:36.679Z,30.92
2022-11-13T05:19:38.231Z,28.65
2022-11-13T05:24:39.610Z,29.65
2022-11-13T05:29:40.979Z,27.52
2022-11-13T05:34:42.378Z,30.77
2022-11-13T05:39:43.728Z,28.02
2022-11-13T05:44:45.127Z,29.15
2022-11-13T05:49:46.511Z,26.92
2022-11-13T05:54:48.338Z,31.13
2022-11-13T05:59:49.828Z,29.23
2022-11-13T06:04:52.899Z,30.52
2022-11-13T06:09:57.695Z,30.70
2022-11-13T06:14:59.230Z,32.22
2022-11-13T06:20:00.606Z,30.33
2022-11-13T06:25:02.161Z,29.67
2022-11-13T06:30:04.320Z,31.33
2022-11-13T06:35:05.802Z,30.67
2022-11-13T06:40:07.788Z,29.50
2022-11-13T06:45:09.379Z,31.83
2022-11-13T06:50:12.199Z,29.67
2022-11-13T06:55:13.633Z,27.67
2022-11-13T07:00:15.321Z,32.35
2022-11-13T07:05:17.057Z,27.63
2022-11-13T07:10:18.448Z,30.65
2022-11-13T07:15:21.609Z,32.00
2022-11-13T07:20:23.597Z,30.50
2022-11-13T07:25:25.244Z,28.55
2022-11-13T07:30:26.841Z,27.10
2022-11-13T07:35:28.280Z,26.70
2022-11-13T07:40:29.821Z,26.05
2022-11-13T07:45:31.420Z,30.67
2022-11-13T07:50:33.812Z,27.17
2022-11-13T07:55:35.508Z,25.98
2022-11-13T08:00:40.164Z,26.00
2022-11-13T08:05:42.374Z,24.48
2022-11-13T08:10:43.931Z,25.38
2022-11-13T08:15:45.471Z,25.10
2022-11-13T08:20:46.860Z,27.92
2022-11-13T08:25:50.466Z,26.17
2022-11-13T08:30:52.041Z,27.10
2022-11-13T08:35:54.710Z,24.80
2022-11-13T08:40:57.021Z,30.63
2022-11-13T08:45:58.530Z,24.45
2022-11-13T08:51:00.122Z,24.25
2022-11-13T08:56:02.347Z,25.77
2022-11-13T09:01:04.363Z,23.35
2022-11-13T09:06:09.264Z,25.48
2022-11-13T09:11:11.067Z,26.63
2022-11-13T09:16:12.531Z,25.38
2022-11-13T09:21:13.908Z,22.77
2022-11-13T09:26:15.339Z,24.13
2022-11-13T09:31:16.792Z,26.90
2022-11-13T09:36:19.671Z,24.77
2022-11-13T09:41:22.634Z,22.70
2022-11-13T09:46:42.806Z,23.52
2022-11-13T09:57:01.086Z,25.20
2022-11-13T10:02:08.734Z,24.45
2022-11-13T10:07:16.079Z,22.23
2022-11-13T10:12:17.785Z,22.63
2022-11-13T10:17:21.204Z,24.70
2022-11-13T10:22:33.814Z,25.23
2022-11-13T10:27:36.027Z,23.15
2022-11-13T10:32:39.974Z,22.48
2022-11-13T10:37:47.151Z,21.77
2022-11-13T10:42:48.768Z,20.85
2022-11-13T10:48:04.130Z,21.83
2022-11-13T10:53:14.919Z,23.33
2022-11-13T10:58:18.868Z,22.48
2022-11-13T11:03:21.893Z,22.20
2022-11-13T11:08:29.923Z,22.42
2022-11-13T11:13:31.514Z,21.13
2022-11-13T11:18:39.848Z,23.40
2022-11-13T11:23:56.174Z,20.05
2022-11-13T11:29:16.470Z,22.02
2022-11-13T11:34:20.665Z,20.33
2022-11-13T11:39:41.098Z,19.08
2022-11-13T11:44:57.650Z,17.98
2022-11-13T11:50:00.179Z,21.45
2022-11-13T11:55:29.804Z,19.55
2022-11-13T12:00:32.682Z,21.07
2022-11-13T12:05:45.232Z,18.92
2022-11-13T12:10:52.450Z,20.45
2022-11-13T12:16:05.939Z,19.30
2022-11-13T12:21:07.771Z,16.75
2022-11-13T12:26:22.621Z,17.23
2022-11-13T12:31:29.918Z,16.33
2022-11-13T12:36:31.964Z,18.15
2022-11-13T12:41:40.978Z,18.38
2022-11-13T12:46:42.587Z,18.23
2022-11-13T12:51:53.552Z,17.42
2022-11-13T12:57:05.350Z,18.85
2022-11-13T13:02:06.937Z,18.83
2022-11-13T13:07:18.478Z,18.98
2022-11-13T13:12:19.899Z,17.73
2022-11-13T13:17:22.990Z,17.85
2022-11-13T13:22:34.227Z,18.70
2022-11-13T13:27:38.019Z,17.55
2022-11-13T13:32:49.663Z,19.42
2022-11-13T13:38:01.541Z,17.50
2022-11-13T13:43:18.234Z,18.17
2022-11-13T13:48:21.619Z,19.25
2022-11-13T13:53:25.505Z,18.27
2022-11-13T13:58:29.146Z,16.05
2022-11-13T14:03:30.804Z,16.20
2022-11-13T14:08:33.689Z,16.25
2022-11-13T14:13:35.482Z,17.13
2022-11-13T14:18:36.866Z,16.45
2022-11-13T14:23:43.010Z,17.65
2022-11-13T14:28:44.373Z,15.95
2022-11-13T14:33:47.536Z,17.00
2022-11-13T14:38:52.190Z,17.65
2022-11-13T14:43:54.481Z,15.02
2022-11-13T14:48:56.788Z,17.05
2022-11-13T14:54:07.493Z,19.30
2022-11-13T14:59:15.524Z,18.05
2022-11-13T15:04:20.513Z,15.95
2022-11-13T15:09:24.424Z,18.15
2022-11-13T15:14:25.862Z,16.35
2022-11-13T15:19:30.845Z,17.48
2022-11-13T15:24:32.312Z,16.63
2022-11-13T15:29:33.757Z,15.00
2022-11-13T15:34:35.225Z,16.83
2022-11-13T15:39:36.635Z,15.60
2022-11-13T15:44:38.192Z,15.23
2022-11-13T15:49:46.868Z,17.02
2022-11-13T15:54:53.102Z,16.05
2022-11-13T15:59:55.076Z,16.80
2022-11-13T16:04:57.340Z,16.55
2022-11-13T16:09:58.894Z,18.42
2022-11-13T16:15:00.924Z,16.88
2022-11-13T16:20:03.220Z,17.05
2022-11-13T16:25:06.657Z,17.17
2022-11-13T16:30:15.373Z,16.23
2022-11-13T16:35:17.639Z,16.40
2022-11-13T16:40:20.660Z,16.95
2022-11-13T16:45:22.180Z,17.00
2022-11-13T16:50:25.009Z,16.67
2022-11-13T16:55:26.536Z,18.00
2022-11-13T17:00:27.961Z,17.60
2022-11-13T17:05:29.394Z,19.27
2022-11-13T17:10:32.666Z,15.45
2022-11-13T17:15:34.546Z,17.48
2022-11-13T17:20:36.783Z,16.95
2022-11-13T17:25:38.388Z,17.80
2022-11-13T17:30:39.763Z,15.95
2022-11-13T17:35:41.169Z,16.50
2022-11-13T17:40:44.241Z,17.20
2022-11-13T17:45:49.153Z,17.83
2022-11-13T17:50:59.591Z,18.02
2022-11-13T17:56:02.355Z,16.10
2022-11-13T18:01:05.359Z,17.38
2022-11-13T18:06:08.768Z,16.05
2022-11-13T18:11:15.406Z,16.48
2022-11-13T18:16:21.635Z,17.67
2022-11-13T18:21:24.732Z,17.65
2022-11-13T18:26:27.202Z,19.13
2022-11-13T18:31:29.564Z,17.90
2022-11-13T18:36:34.817Z,19.50
2022-11-13T18:41:40.760Z,18.85
2022-11-13T18:46:42.343Z,16.95
2022-11-13T18:51:43.893Z,19.30
2022-11-13T18:56:45.359Z,19.40
2022-11-13T19:01:46.876Z,17.27
2022-11-13T19:06:50.176Z,16.77
2022-11-13T19:11:53.699Z,18.17
2022-11-13T19:16:55.091Z,18.42
2022-11-13T19:21:56.524Z,20.45
2022-11-13T19:26:58.253Z,20.23
2022-11-13T19:31:59.732Z,18.17
2022-11-13T19:37:01.178Z,20.25
2022-11-13T19:42:02.692Z,18.92
2022-11-13T19:47:04.098Z,19.20
2022-11-13T19:52:06.554Z,20.13
2022-11-13T19:57:08.147Z,18.10
2022-11-13T20:02:10.298Z,20.10
2022-11-13T20:07:12.075Z,22.10
2022-11-13T20:12:13.545Z,19.90
2022-11-13T20:17:15.081Z,21.15
2022-11-13T20:22:16.706Z,20.60
2022-11-13T20:27:19.277Z,23.95
2022-11-13T20:32:23.757Z,22.48
2022-11-13T20:37:25.959Z,22.27
2022-11-13T20:42:28.071Z,23.48
2022-11-13T20:47:29.800Z,20.42
2022-11-13T20:52:31.446Z,21.35
2022-11-13T20:57:36.754Z,23.08
2022-11-13T21:02:41.317Z,20.92
2022-11-13T21:07:42.812Z,23.33
2022-11-13T21:12:44.461Z,22.33
2022-11-13T21:17:45.876Z,24.45
2022-11-13T21:22:47.317Z,26.45
2022-11-13T21:27:48.880Z,24.33
2022-11-13T21:32:50.265Z,23.67
2022-11-13T21:37:51.720Z,25.13
2022-11-13T21:42:53.986Z,26.45
2022-11-13T21:47:57.010Z,24.92
2022-11-13T21:52:58.473Z,27.70
2022-11-13T21:57:59.825Z,27.27
2022-11-13T22:03:01.209Z,29.23
2022-11-13T22:08:02.642Z,30.48
2022-11-13T22:13:04.166Z,28.67
2022-11-13T22:18:05.585Z,26.48
2022-11-13T22:23:06.963Z,29.63
2022-11-13T22:28:08.547Z,27.75
2022-11-13T22:33:10.018Z,30.92
2022-11-13T22:38:12.375Z,32.00
2022-11-13T22:43:13.906Z,29.80
2022-11-13T22:48:15.250Z,31.77
2022-11-13T22:53:16.580Z,34.65
2022-11-13T22:58:18.236Z,34.03
2022-11-13T23:03:19.675Z,38.20
2022-11-13T23:08:21.264Z,37.38
2022-11-13T23:13:23.009Z,39.30
2022-11-13T23:18:24.440Z,37.05
2022-11-13T23:23:25.858Z,41.38
2022-11-13T23:28:28.135Z,41.55
2022-11-13T23:33:30.019Z,41.58
2022-11-13T23:38:31.766Z,43.60
2022-11-13T23:44:07.234Z,47.53
2022-11-13T23:48:57.468Z,45.88
2022-11-13T23:53:58.916Z,46.85
2022-11-13T23:59:00.357Z,51.30
